createdAt,value
2022-11-12T00:00:19.081Z,5.16
2022-11-12T00:03:18.491Z,5.04
2022-11-12T00:06:03.699Z,5.02
2022-11-12T00:08:48.555Z,5.00
2022-11-12T00:11:36.502Z,4.93
2022-11-12T00:14:21.580Z,4.84
2022-11-12T00:17:06.583Z,4.77
2022-11-12T00:19:56.897Z,4.70
2022-11-12T00:22:42.283Z,4.65
2022-11-12T00:25:31.262Z,4.62
2022-11-12T00:28:16.641Z,4.59
2022-11-12T00:31:06.340Z,4.60
2022-11-12T00:33:51.467Z,4.57
2022-11-12T00:36:36.892Z,4.54
2022-11-12T00:39:21.948Z,4.51
2022-11-12T00:42:06.725Z,4.44
2022-11-12T00:44:51.844Z,4.36
2022-11-12T00:47:36.742Z,4.28
2022-11-12T00:50:21.981Z,4.18
2022-11-12T00:53:07.256Z,4.10
2022-11-12T00:55:52.429Z,4.03
2022-11-12T00:58:37.719Z,3.97
2022-11-12T01:01:22.924Z,3.91
2022-11-12T01:04:12.523Z,3.85
2022-11-12T01:06:58.186Z,3.79
2022-11-12T01:09:43.300Z,3.73
2022-11-12T01:12:32.171Z,3.68
2022-11-12T01:15:17.333Z,3.60
2022-11-12T01:18:02.583Z,3.57
2022-11-12T01:20:47.474Z,3.51
2022-11-12T01:23:34.420Z,3.44
2022-11-12T01:26:27.682Z,3.39
2022-11-12T01:29:12.879Z,3.34
2022-11-12T01:31:58.439Z,3.33
2022-11-12T01:34:43.395Z,3.31
2022-11-12T01:37:28.609Z,3.26
2022-11-12T01:40:18.055Z,3.21
2022-11-12T01:43:02.967Z,3.19
2022-11-12T01:45:53.034Z,3.15
2022-11-12T01:48:44.110Z,3.11
2022-11-12T01:51:35.054Z,3.07
2022-11-12T01:54:21.922Z,3.03
2022-11-12T01:57:12.672Z,3.01
2022-11-12T02:00:03.957Z,2.99
2022-11-12T02:02:57.955Z,2.95
2022-11-12T02:05:47.502Z,2.88
2022-11-12T02:08:35.559Z,2.84
2022-11-12T02:11:22.844Z,2.77
2022-11-12T02:14:08.243Z,2.70
2022-11-12T02:16:53.381Z,2.66
2022-11-12T02:19:38.718Z,2.65
2022-11-12T02:22:24.377Z,2.65
2022-11-12T02:25:15.067Z,2.71
2022-11-12T02:28:05.159Z,2.74
2022-11-12T02:30:50.547Z,2.78
2022-11-12T02:33:35.248Z,2.78
2022-11-12T02:36:24.010Z,2.70
2022-11-12T02:39:09.255Z,2.57
2022-11-12T02:41:54.417Z,2.52
2022-11-12T02:44:43.480Z,2.42
2022-11-12T02:47:28.440Z,2.31
2022-11-12T02:50:17.129Z,2.20
2022-11-12T02:53:04.557Z,2.13
2022-11-12T02:55:49.878Z,2.04
2022-11-12T02:58:34.938Z,1.94
2022-11-12T03:01:20.311Z,1.87
2022-11-12T03:04:05.735Z,1.82
2022-11-12T03:06:55.403Z,1.77
2022-11-12T03:09:40.228Z,1.75
2022-11-12T03:12:24.969Z,1.74
2022-11-12T03:15:10.282Z,1.74
2022-11-12T03:18:00.629Z,1.74
2022-11-12T03:20:45.773Z,1.74
2022-11-12T03:23:33.920Z,1.74
2022-11-12T03:26:19.110Z,1.78
2022-11-12T03:29:07.662Z,1.80
2022-11-12T03:31:53.117Z,1.77
2022-11-12T03:34:38.391Z,1.77
2022-11-12T03:37:23.499Z,1.75
2022-11-12T03:40:08.689Z,1.72
2022-11-12T03:42:53.884Z,1.70
2022-11-12T03:45:39.071Z,1.70
2022-11-12T03:48:24.289Z,1.71
2022-11-12T03:51:16.449Z,1.73
2022-11-12T03:54:01.421Z,1.76
2022-11-12T03:56:46.466Z,1.74
2022-11-12T03:59:32.071Z,1.70
2022-11-12T04:02:17.399Z,1.68
2022-11-12T04:05:24.653Z,1.66
2022-11-12T04:08:35.332Z,1.64
2022-11-12T04:11:20.617Z,1.63
2022-11-12T04:14:09.723Z,1.63
2022-11-12T04:17:13.701Z,1.63
2022-11-12T04:20:17.283Z,1.64
2022-11-12T04:23:02.771Z,1.66
2022-11-12T04:26:06.632Z,1.66
2022-11-12T04:29:10.704Z,1.67
2022-11-12T04:31:56.066Z,1.67
2022-11-12T04:34:44.935Z,1.66
2022-11-12T04:37:49.015Z,1.63
2022-11-12T04:40:52.688Z,1.59
2022-11-12T04:43:56.494Z,1.56
2022-11-12T04:46:41.394Z,1.57
2022-11-12T04:49:26.592Z,1.58
2022-11-12T04:52:11.615Z,1.55
2022-11-12T04:54:56.832Z,1.57
2022-11-12T04:57:41.873Z,1.54
2022-11-12T05:00:30.909Z,1.54
2022-11-12T05:03:20.312Z,1.59
2022-11-12T05:06:29.629Z,1.52
2022-11-12T05:09:14.935Z,1.54
2022-11-12T05:12:03.957Z,1.56
2022-11-12T05:14:49.168Z,1.58
2022-11-12T05:17:34.008Z,1.59
2022-11-12T05:20:19.359Z,1.64
2022-11-12T05:23:07.125Z,1.69
2022-11-12T05:25:56.323Z,1.71
2022-11-12T05:28:41.643Z,1.79
2022-11-12T05:31:26.758Z,1.89
2022-11-12T05:34:12.366Z,1.99
2022-11-12T05:37:01.191Z,2.10
2022-11-12T05:39:46.118Z,2.18
2022-11-12T05:42:31.318Z,2.32
2022-11-12T05:45:16.192Z,2.41
2022-11-12T05:48:01.308Z,2.52
2022-11-12T05:51:11.767Z,2.63
2022-11-12T05:53:58.108Z,2.77
2022-11-12T05:56:46.811Z,2.89
2022-11-12T05:59:31.933Z,2.99
2022-11-12T06:02:17.214Z,3.06
2022-11-12T06:05:02.303Z,3.17
2022-11-12T06:07:47.727Z,3.26
2022-11-12T06:10:36.441Z,3.33
2022-11-12T06:13:25.218Z,3.38
2022-11-12T06:16:10.429Z,3.45
2022-11-12T06:18:55.412Z,3.50
2022-11-12T06:21:40.195Z,3.54
2022-11-12T06:24:35.238Z,3.63
2022-11-12T06:27:24.623Z,3.72
2022-11-12T06:30:13.692Z,3.85
2022-11-12T06:32:58.926Z,3.97
2022-11-12T06:35:43.980Z,4.09
2022-11-12T06:38:33.802Z,4.16
2022-11-12T06:41:18.814Z,4.25
2022-11-12T06:44:07.382Z,4.35
2022-11-12T06:46:52.500Z,4.40
2022-11-12T06:49:37.580Z,4.47
2022-11-12T06:52:22.520Z,4.54
2022-11-12T06:55:07.995Z,4.56
2022-11-12T06:57:55.786Z,4.65
2022-11-12T07:00:40.939Z,4.77
2022-11-12T07:03:26.113Z,4.89
2022-11-12T07:06:18.610Z,4.96
2022-11-12T07:09:08.001Z,5.06
2022-11-12T07:11:53.578Z,5.12
2022-11-12T07:14:38.787Z,5.19
2022-11-12T07:17:27.294Z,5.25
2022-11-12T07:20:16.392Z,5.35
2022-11-12T07:23:01.927Z,5.44
2022-11-12T07:25:46.988Z,5.53
2022-11-12T07:28:35.975Z,5.67
2022-11-12T07:31:25.612Z,5.78
2022-11-12T07:34:10.755Z,5.95
2022-11-12T07:36:55.745Z,6.07
2022-11-12T07:39:40.713Z,6.15
2022-11-12T07:42:25.595Z,6.25
2022-11-12T07:45:10.722Z,6.32
2022-11-12T07:48:02.132Z,6.39
2022-11-12T07:50:47.100Z,6.49
2022-11-12T07:53:36.621Z,6.60
2022-11-12T07:56:24.502Z,6.69
2022-11-12T07:59:09.488Z,6.81
2022-11-12T08:01:54.719Z,6.91
2022-11-12T08:04:40.318Z,6.97
2022-11-12T08:07:25.899Z,7.01
2022-11-12T08:10:14.950Z,7.06
2022-11-12T08:13:00.140Z,7.14
2022-11-12T08:15:48.111Z,7.22
2022-11-12T08:18:40.793Z,7.26
2022-11-12T08:21:25.907Z,7.32
2022-11-12T08:24:12.016Z,7.41
2022-11-12T08:26:56.717Z,7.49
2022-11-12T08:29:41.608Z,7.57
2022-11-12T08:32:26.562Z,7.69
2022-11-12T08:35:15.424Z,7.79
2022-11-12T08:38:04.644Z,7.83
2022-11-12T08:40:49.928Z,7.85
2022-11-12T08:43:35.041Z,7.84
2022-11-12T08:46:20.027Z,7.83
2022-11-12T08:49:04.837Z,7.87
2022-11-12T08:51:49.878Z,7.94
2022-11-12T08:54:35.212Z,7.98
2022-11-12T08:57:20.781Z,8.03
2022-11-12T09:00:08.733Z,8.05
2022-11-12T09:02:53.971Z,8.09
2022-11-12T09:05:39.168Z,8.14
2022-11-12T09:08:28.572Z,8.18
2022-11-12T09:11:14.063Z,8.19
2022-11-12T09:13:59.214Z,8.24
2022-11-12T09:16:44.650Z,8.26
2022-11-12T09:19:29.907Z,8.28
2022-11-12T09:22:15.110Z,8.31
2022-11-12T09:25:00.127Z,8.35
2022-11-12T09:27:48.417Z,8.40
2022-11-12T09:30:41.167Z,8.42
2022-11-12T09:33:32.194Z,8.44
2022-11-12T09:36:17.237Z,8.50
2022-11-12T09:39:02.053Z,8.55
2022-11-12T09:41:46.953Z,8.58
2022-11-12T09:44:37.067Z,8.70
2022-11-12T09:47:51.511Z,8.89
2022-11-12T09:50:43.248Z,9.07
2022-11-12T09:53:55.964Z,9.17
2022-11-12T09:56:40.915Z,9.24
2022-11-12T09:59:31.619Z,9.28
2022-11-12T10:02:31.063Z,9.25
2022-11-12T10:05:15.933Z,9.27
2022-11-12T10:08:00.858Z,9.35
2022-11-12T10:10:56.709Z,9.39
2022-11-12T10:14:00.569Z,9.44
2022-11-12T10:16:51.938Z,9.50
2022-11-12T10:19:59.913Z,9.55
2022-11-12T10:23:09.165Z,9.54
2022-11-12T10:26:00.619Z,9.60
2022-11-12T10:28:45.725Z,9.68
2022-11-12T10:31:31.257Z,9.78
2022-11-12T10:34:19.395Z,9.81
2022-11-12T10:37:08.023Z,9.88
2022-11-12T10:39:53.393Z,9.82
2022-11-12T10:42:57.197Z,9.83
2022-11-12T10:45:46.381Z,9.86
2022-11-12T10:48:36.324Z,9.88
2022-11-12T10:51:26.494Z,9.89
2022-11-12T10:54:26.640Z,9.93
2022-11-12T10:57:28.640Z,9.93
2022-11-12T11:00:13.878Z,10.01
2022-11-12T11:03:04.633Z,10.10
2022-11-12T11:06:04.335Z,10.16
2022-11-12T11:08:57.323Z,10.25
2022-11-12T11:11:53.460Z,10.30
2022-11-12T11:14:43.541Z,10.31
2022-11-12T11:17:28.658Z,10.32
2022-11-12T11:20:20.262Z,10.36
2022-11-12T11:23:17.127Z,10.40
2022-11-12T11:26:13.069Z,10.50
2022-11-12T11:29:20.478Z,10.51
2022-11-12T11:32:20.492Z,10.53
2022-11-12T11:35:27.380Z,10.53
2022-11-12T11:38:31.050Z,10.56
2022-11-12T11:41:19.225Z,10.53
2022-11-12T11:44:15.352Z,10.55
2022-11-12T11:47:08.782Z,10.51
2022-11-12T11:50:03.371Z,10.50
2022-11-12T11:53:04.855Z,10.45
2022-11-12T11:55:58.736Z,10.47
2022-11-12T11:58:50.912Z,10.51
2022-11-12T12:01:42.023Z,10.47
2022-11-12T12:04:43.276Z,10.43
2022-11-12T12:07:31.545Z,10.45
2022-11-12T12:10:22.945Z,10.52
2022-11-12T12:13:21.397Z,10.49
2022-11-12T12:16:20.191Z,10.48
2022-11-12T12:19:05.105Z,10.48
2022-11-12T12:21:54.253Z,10.47
2022-11-12T12:24:47.218Z,10.47
2022-11-12T12:27:35.324Z,10.49
2022-11-12T12:30:21.757Z,10.62
2022-11-12T12:33:18.566Z,10.67
2022-11-12T12:36:06.955Z,10.70
2022-11-12T12:38:54.881Z,10.76
2022-11-12T12:41:52.171Z,10.82
2022-11-12T12:45:04.128Z,10.88
2022-11-12T12:47:50.404Z,10.86
2022-11-12T12:50:37.257Z,10.89
2022-11-12T12:53:22.401Z,10.87
2022-11-12T12:56:13.628Z,10.86
2022-11-12T12:59:03.110Z,10.92
2022-11-12T13:01:58.315Z,10.96
2022-11-12T13:04:56.781Z,10.97
2022-11-12T13:07:44.408Z,10.97
2022-11-12T13:10:38.458Z,10.98
2022-11-12T13:13:32.627Z,10.93
2022-11-12T13:16:38.439Z,10.86
2022-11-12T13:19:34.930Z,10.82
2022-11-12T13:22:20.873Z,10.79
2022-11-12T13:25:12.165Z,10.73
2022-11-12T13:28:04.523Z,10.69
2022-11-12T13:30:49.481Z,10.70
2022-11-12T13:33:35.126Z,10.66
2022-11-12T13:36:25.517Z,10.62
2022-11-12T13:39:12.861Z,10.63
2022-11-12T13:42:17.630Z,10.64
2022-11-12T13:45:05.170Z,10.61
2022-11-12T13:47:51.389Z,10.58
2022-11-12T13:50:40.380Z,10.57
2022-11-12T13:53:27.427Z,10.50
2022-11-12T13:56:23.457Z,10.45
2022-11-12T13:59:15.817Z,10.40
2022-11-12T14:02:03.413Z,10.37
2022-11-12T14:04:49.161Z,10.40
2022-11-12T14:07:53.478Z,10.37
2022-11-12T14:10:48.022Z,10.36
2022-11-12T14:13:36.767Z,10.35
2022-11-12T14:16:28.215Z,10.28
2022-11-12T14:19:22.198Z,10.20
2022-11-12T14:22:13.220Z,10.16
2022-11-12T14:24:59.763Z,10.17
2022-11-12T14:27:45.901Z,10.17
2022-11-12T14:30:31.496Z,10.21
2022-11-12T14:33:17.660Z,10.21
2022-11-12T14:36:04.779Z,10.24
2022-11-12T14:38:54.700Z,10.28
2022-11-12T14:41:42.125Z,10.30
2022-11-12T14:44:32.047Z,10.32
2022-11-12T14:47:17.539Z,10.33
2022-11-12T14:50:03.069Z,10.33
2022-11-12T14:52:51.699Z,10.32
2022-11-12T14:55:40.807Z,10.27
2022-11-12T14:58:27.413Z,10.21
2022-11-12T15:02:20.586Z,10.16
2022-11-12T15:04:36.418Z,10.16
2022-11-12T15:07:40.649Z,10.14
2022-11-12T15:10:29.208Z,10.11
2022-11-12T15:13:17.418Z,10.13
2022-11-12T15:16:07.254Z,10.14
2022-11-12T15:19:04.654Z,10.18
2022-11-12T15:21:55.072Z,10.21
2022-11-12T15:24:44.033Z,10.23
2022-11-12T15:27:31.936Z,10.21
2022-11-12T15:30:20.282Z,10.19
2022-11-12T15:33:11.569Z,10.24
2022-11-12T15:35:58.764Z,10.25
2022-11-12T15:38:52.545Z,10.24
2022-11-12T15:41:39.041Z,10.25
2022-11-12T15:44:25.567Z,10.27
2022-11-12T15:47:16.475Z,10.24
2022-11-12T15:50:11.268Z,10.18
2022-11-12T15:52:56.350Z,10.13
2022-11-12T15:55:43.876Z,10.12
2022-11-12T15:58:34.157Z,10.13
2022-11-12T16:01:19.197Z,10.13
2022-11-12T16:04:04.656Z,10.17
2022-11-12T16:06:49.534Z,10.17
2022-11-12T16:09:34.680Z,10.21
2022-11-12T16:12:19.856Z,10.24
2022-11-12T16:15:12.618Z,10.21
2022-11-12T16:18:01.643Z,10.17
2022-11-12T16:20:48.627Z,10.19
2022-11-12T16:23:33.690Z,10.18
2022-11-12T16:26:22.551Z,10.17
2022-11-12T16:29:14.290Z,10.14
2022-11-12T16:31:59.505Z,10.10
2022-11-12T16:34:44.519Z,10.09
2022-11-12T16:37:30.110Z,10.11
2022-11-12T16:40:16.927Z,10.14
2022-11-12T16:43:02.176Z,10.14
2022-11-12T16:45:47.197Z,10.11
2022-11-12T16:48:32.357Z,10.10
2022-11-12T16:51:18.616Z,10.11
2022-11-12T16:54:04.210Z,10.10
2022-11-12T16:56:49.344Z,10.10
2022-11-12T16:59:34.609Z,10.15
2022-11-12T17:02:20.117Z,10.11
2022-11-12T17:05:07.801Z,10.09
2022-11-12T17:07:57.048Z,10.06
2022-11-12T17:10:42.229Z,9.99
2022-11-12T17:13:27.674Z,9.86
2022-11-12T17:16:13.712Z,9.77
2022-11-12T17:19:01.070Z,9.74
2022-11-12T17:21:46.420Z,9.75
2022-11-12T17:24:31.484Z,9.79
2022-11-12T17:27:16.400Z,9.80
2022-11-12T17:30:01.767Z,9.80
2022-11-12T17:32:48.329Z,9.82
2022-11-12T17:35:33.939Z,9.84
2022-11-12T17:38:18.966Z,9.82
2022-11-12T17:41:04.400Z,9.83
2022-11-12T17:43:53.648Z,9.89
2022-11-12T17:46:39.111Z,9.94
2022-11-12T17:49:24.244Z,9.95
2022-11-12T17:52:09.269Z,9.91
2022-11-12T17:54:54.190Z,9.88
2022-11-12T17:57:39.425Z,9.87
2022-11-12T18:00:24.441Z,9.85
2022-11-12T18:03:09.806Z,9.82
2022-11-12T18:05:55.681Z,9.77
2022-11-12T18:08:41.230Z,9.76
2022-11-12T18:11:27.605Z,9.76
2022-11-12T18:14:13.732Z,9.79
2022-11-12T18:17:00.732Z,9.84
2022-11-12T18:19:45.772Z,9.88
2022-11-12T18:22:30.636Z,9.98
2022-11-12T18:25:15.790Z,10.06
2022-11-12T18:28:01.289Z,10.05
2022-11-12T18:30:46.157Z,10.06
2022-11-12T18:33:31.198Z,10.10
2022-11-12T18:36:17.973Z,10.08
2022-11-12T18:39:03.849Z,10.01
2022-11-12T18:41:50.692Z,9.96
2022-11-12T18:44:36.232Z,9.87
2022-11-12T18:47:21.184Z,9.81
2022-11-12T18:50:08.823Z,9.80
2022-11-12T18:52:54.352Z,9.77
2022-11-12T18:55:39.329Z,9.78
2022-11-12T18:58:24.782Z,9.82
2022-11-12T19:01:11.610Z,9.86
2022-11-12T19:03:57.537Z,9.84
2022-11-12T19:06:42.547Z,9.83
2022-11-12T19:09:28.096Z,9.79
2022-11-12T19:12:13.448Z,9.79
2022-11-12T19:14:58.380Z,9.78
2022-11-12T19:17:43.639Z,9.78
2022-11-12T19:20:29.258Z,9.74
2022-11-12T19:23:14.511Z,9.73
2022-11-12T19:26:00.700Z,9.76
2022-11-12T19:28:45.886Z,9.81
2022-11-12T19:31:33.537Z,9.81
2022-11-12T19:34:19.031Z,9.84
2022-11-12T19:37:27.130Z,9.88
2022-11-12T19:40:10.426Z,9.84
2022-11-12T19:42:55.544Z,9.80
2022-11-12T19:45:40.647Z,9.78
2022-11-12T19:48:26.168Z,9.76
2022-11-12T19:51:12.336Z,9.77
2022-11-12T19:53:57.739Z,9.80
2022-11-12T19:56:42.632Z,9.85
2022-11-12T19:59:27.512Z,9.82
2022-11-12T20:02:14.241Z,9.81
2022-11-12T20:04:59.632Z,9.79
2022-11-12T20:07:46.839Z,9.84
2022-11-12T20:10:31.995Z,9.90
2022-11-12T20:13:17.179Z,9.98
2022-11-12T20:16:10.812Z,10.06
2022-11-12T20:18:56.365Z,10.05
2022-11-12T20:21:41.671Z,10.03
2022-11-12T20:24:27.335Z,9.99
2022-11-12T20:27:12.828Z,9.91
2022-11-12T20:29:58.200Z,9.80
2022-11-12T20:32:43.459Z,9.76
2022-11-12T20:35:29.042Z,9.73
2022-11-12T20:38:14.286Z,9.71
2022-11-12T20:41:02.068Z,9.63
2022-11-12T20:43:47.796Z,9.64
2022-11-12T20:46:33.209Z,9.70
2022-11-12T20:49:18.177Z,9.68
2022-11-12T20:52:03.411Z,9.66
2022-11-12T20:54:48.195Z,9.73
2022-11-12T20:57:33.137Z,9.75
2022-11-12T21:00:23.750Z,9.76
2022-11-12T21:03:09.068Z,9.76
2022-11-12T21:05:58.312Z,9.82
2022-11-12T21:08:43.551Z,9.88
2022-11-12T21:11:28.684Z,9.92
2022-11-12T21:14:14.680Z,9.90
2022-11-12T21:16:59.552Z,9.91
2022-11-12T21:19:44.657Z,9.93
2022-11-12T21:22:31.501Z,9.92
2022-11-12T21:25:16.614Z,9.94
2022-11-12T21:28:01.786Z,9.88
2022-11-12T21:30:46.717Z,9.79
2022-11-12T21:33:32.042Z,9.68
2022-11-12T21:36:17.297Z,9.66
2022-11-12T21:39:03.535Z,9.72
2022-11-12T21:41:48.739Z,9.73
2022-11-12T21:44:34.286Z,9.71
2022-11-12T21:47:19.109Z,9.75
2022-11-12T21:50:05.125Z,9.80
2022-11-12T21:52:49.957Z,9.87
2022-11-12T21:55:35.830Z,9.89
2022-11-12T21:58:36.632Z,9.88
2022-11-12T22:01:24.547Z,9.88
2022-11-12T22:04:11.892Z,9.93
2022-11-12T22:07:01.895Z,9.89
2022-11-12T22:09:46.793Z,9.89
2022-11-12T22:12:31.929Z,9.97
2022-11-12T22:15:23.030Z,10.04
2022-11-12T22:18:10.763Z,10.02
2022-11-12T22:20:58.876Z,9.96
2022-11-12T22:23:44.107Z,9.94
2022-11-12T22:26:29.186Z,9.89
2022-11-12T22:29:14.560Z,9.83
2022-11-12T22:31:59.568Z,9.76
2022-11-12T22:34:48.401Z,9.73
2022-11-12T22:37:34.750Z,9.67
2022-11-12T22:40:20.272Z,9.69
2022-11-12T22:43:05.112Z,9.70
2022-11-12T22:45:50.052Z,9.71
2022-11-12T22:48:34.864Z,9.72
2022-11-12T22:51:21.580Z,9.76
2022-11-12T22:54:09.125Z,9.75
2022-11-12T22:56:54.612Z,9.72
2022-11-12T22:59:39.732Z,9.70
2022-11-12T23:02:26.065Z,9.67
2022-11-12T23:05:11.181Z,9.65
2022-11-12T23:07:56.452Z,9.61
2022-11-12T23:10:45.570Z,9.62
2022-11-12T23:13:33.840Z,9.66
2022-11-12T23:16:21.968Z,9.69
2022-11-12T23:19:07.348Z,9.71
2022-11-12T23:21:52.888Z,9.68
2022-11-12T23:24:37.895Z,9.71
2022-11-12T23:27:23.024Z,9.69
2022-11-12T23:30:12.539Z,9.67
2022-11-12T23:32:58.128Z,9.66
2022-11-12T23:35:43.170Z,9.67
2022-11-12T23:38:28.311Z,9.68
2022-11-12T23:41:18.106Z,9.73
2022-11-12T23:44:03.490Z,9.75
2022-11-12T23:46:48.325Z,9.80
2022-11-12T23:49:33.347Z,9.74
2022-11-12T23:52:19.059Z,9.73
2022-11-12T23:55:05.347Z,9.73
2022-11-12T23:57:54.223Z,9.76
